Terminal Aerodrome Forecast
Issued by NWS

Home | Current Version | Previous Version | Text Only | Print | Product List | Glossary Off
Versions: 1 2 3 4 5 6 7 8 9 10 11 12 13 14 15 16 17

000
FTUS43 KICT 231700
TAFCNU
TAF
KCNU 231720Z 2318/2418 19011KT P6SM SCT015 BKN020
      TEMPO 2318/2321 BKN015
     FM240200 18006KT P6SM SCT030
     FM240600 21005KT P6SM BKN250=

USA.gov is the U.S. government's official web portal to all federal, state and local government web resources and services.